createdAt,value
2018-11-05T00:00:18.529Z,987.6
2018-11-05T00:01:28.664Z,987.61
2018-11-05T00:02:38.514Z,987.62
2018-11-05T00:03:48.085Z,987.62
2018-11-05T00:04:57.987Z,987.63
2018-11-05T00:06:08.112Z,987.58
2018-11-05T00:07:17.973Z,987.58
2018-11-05T00:08:28.104Z,987.5
2018-11-05T00:09:37.969Z,987.5
2018-11-05T00:10:47.815Z,987.5
2018-11-05T00:11:57.981Z,987.52
2018-11-05T00:13:08.105Z,987.49
2018-11-05T00:14:17.960Z,987.53
2018-11-05T00:15:28.083Z,987.47
2018-11-05T00:16:38.219Z,987.44
2018-11-05T00:17:48.362Z,987.47
2018-11-05T00:18:58.222Z,987.4
2018-11-05T00:20:08.095Z,987.44
2018-11-05T00:21:17.395Z,987.41
2018-11-05T00:22:27.538Z,987.39
2018-11-05T00:23:36.839Z,987.42
2018-11-05T00:24:46.691Z,987.41
2018-11-05T00:25:56.269Z,987.42
2018-11-05T00:27:06.119Z,987.42
2018-11-05T00:28:15.699Z,987.42
2018-11-05T00:29:25.552Z,987.44
2018-11-05T00:30:35.687Z,987.39
2018-11-05T00:31:45.810Z,987.38
2018-11-05T00:32:55.662Z,987.37
2018-11-05T00:34:05.514Z,987.38
2018-11-05T00:35:15.090Z,987.38
2018-11-05T00:36:25.227Z,987.35
2018-11-05T00:37:35.394Z,987.3
2018-11-05T00:38:45.536Z,987.3
2018-11-05T00:39:55.116Z,987.33
2018-11-05T00:41:04.694Z,987.33
2018-11-05T00:42:14.541Z,987.36
2018-11-05T00:43:24.397Z,987.36
2018-11-05T00:44:34.244Z,987.34
2018-11-05T00:45:44.392Z,987.38
2018-11-05T00:46:54.423Z,987.35
2018-11-05T00:48:04.007Z,987.34
2018-11-05T00:49:13.868Z,987.34
2018-11-05T00:50:23.723Z,987.33
2018-11-05T00:51:33.590Z,987.35
2018-11-05T00:52:43.454Z,987.28
2018-11-05T00:53:53.026Z,987.31
2018-11-05T00:55:02.882Z,987.34
2018-11-05T00:56:12.180Z,987.3
2018-11-05T00:57:21.545Z,987.3
2018-11-05T00:58:31.453Z,987.29
2018-11-05T00:59:41.578Z,987.27
2018-11-05T01:00:51.431Z,987.26
2018-11-05T01:02:01.568Z,987.22
2018-11-05T01:03:11.428Z,987.25
2018-11-05T01:04:21.322Z,987.26
2018-11-05T01:05:31.448Z,987.27
2018-11-05T01:06:41.303Z,987.27
2018-11-05T01:07:51.158Z,987.29
2018-11-05T01:09:01.065Z,987.3
2018-11-05T01:10:10.918Z,987.24
2018-11-05T01:11:21.044Z,987.28
2018-11-05T01:12:30.902Z,987.24
2018-11-05T01:13:40.532Z,987.27
2018-11-05T01:14:50.386Z,987.29
2018-11-05T01:16:00.237Z,987.3
2018-11-05T01:17:10.086Z,987.31
2018-11-05T01:18:20.207Z,987.29
2018-11-05T01:19:29.785Z,987.29
2018-11-05T01:20:39.639Z,987.29
2018-11-05T01:21:49.769Z,987.35
2018-11-05T01:22:59.620Z,987.31
2018-11-05T01:24:09.467Z,987.31
2018-11-05T01:25:19.047Z,987.28
2018-11-05T01:26:29.190Z,987.27
2018-11-05T01:27:39.046Z,987.28
2018-11-05T01:28:49.180Z,987.27
2018-11-05T01:29:59.313Z,987.32
2018-11-05T01:31:09.173Z,987.35
2018-11-05T01:32:19.304Z,987.4
2018-11-05T01:33:29.427Z,987.38
2018-11-05T01:34:39.281Z,987.4
2018-11-05T01:35:49.407Z,987.38
2018-11-05T01:36:59.279Z,987.43
2018-11-05T01:38:09.544Z,987.41
2018-11-05T01:39:19.675Z,987.45
2018-11-05T01:40:29.527Z,987.38
2018-11-05T01:41:39.103Z,987.41
2018-11-05T01:42:49.228Z,987.39
2018-11-05T01:43:59.077Z,987.36
2018-11-05T01:45:08.932Z,987.4
2018-11-05T01:46:18.511Z,987.38
2018-11-05T01:47:28.637Z,987.36
2018-11-05T01:48:38.820Z,987.34
2018-11-05T01:49:48.948Z,987.35
2018-11-05T01:50:58.797Z,987.41
2018-11-05T01:52:08.646Z,987.35
2018-11-05T01:53:18.217Z,987.34
2018-11-05T01:54:28.071Z,987.32
2018-11-05T01:55:38.194Z,987.31
2018-11-05T01:56:48.324Z,987.28
2018-11-05T01:57:58.179Z,987.3
2018-11-05T01:59:08.301Z,987.23
2018-11-05T02:00:18.158Z,987.31
2018-11-05T02:01:28.011Z,987.3
2018-11-05T02:02:37.357Z,987.3
2018-11-05T02:03:47.486Z,987.28
2018-11-05T02:04:57.333Z,987.32
2018-11-05T02:06:06.904Z,987.27
2018-11-05T02:07:17.044Z,987.28
2018-11-05T02:08:26.890Z,987.26
2018-11-05T02:09:37.013Z,987.26
2018-11-05T02:10:46.864Z,987.24
2018-11-05T02:11:56.164Z,987.27
2018-11-05T02:13:06.062Z,987.2
2018-11-05T02:14:15.778Z,987.22
2018-11-05T02:15:25.626Z,987.16
2018-11-05T02:16:35.756Z,987.21
2018-11-05T02:17:45.606Z,987.24
2018-11-05T02:18:55.783Z,987.23
2018-11-05T02:20:05.356Z,987.24
2018-11-05T02:21:15.219Z,987.21
2018-11-05T02:22:24.791Z,987.25
2018-11-05T02:23:34.640Z,987.19
2018-11-05T02:24:44.219Z,987.22
2018-11-05T02:25:54.364Z,987.21
2018-11-05T02:27:04.238Z,987.17
2018-11-05T02:28:14.755Z,987.21
2018-11-05T02:29:24.876Z,987.18
2018-11-05T02:30:34.723Z,987.18
2018-11-05T02:31:44.587Z,987.17
2018-11-05T02:32:54.733Z,987.13
2018-11-05T02:34:04.587Z,987.17
2018-11-05T02:35:14.442Z,987.16
2018-11-05T02:36:23.754Z,987.19
2018-11-05T02:37:33.612Z,987.19
2018-11-05T02:38:43.738Z,987.19
2018-11-05T02:39:53.873Z,987.17
2018-11-05T02:41:03.724Z,987.19
2018-11-05T02:42:13.851Z,987.18
2018-11-05T02:43:23.981Z,987.18
2018-11-05T02:44:33.558Z,987.16
2018-11-05T02:45:43.411Z,987.2
2018-11-05T02:46:53.014Z,987.19
2018-11-05T02:48:03.143Z,987.16
2018-11-05T02:49:13.271Z,987.14
2018-11-05T02:50:22.846Z,987.21
2018-11-05T02:51:32.985Z,987.18
2018-11-05T02:52:43.117Z,987.15
2018-11-05T02:53:53.267Z,987.15
2018-11-05T02:55:03.423Z,987.18
2018-11-05T02:56:13.563Z,987.19
2018-11-05T02:57:23.418Z,987.13
2018-11-05T02:58:33.537Z,987.22
2018-11-05T02:59:43.684Z,987.23
2018-11-05T03:00:53.536Z,987.22
2018-11-05T03:02:03.662Z,987.26
2018-11-05T03:03:13.574Z,987.21
2018-11-05T03:04:24.115Z,987.18
2018-11-05T03:05:34.257Z,987.2
2018-11-05T03:06:44.109Z,987.17
2018-11-05T03:07:53.959Z,987.18
2018-11-05T03:09:04.095Z,987.22
2018-11-05T03:10:13.972Z,987.21
2018-11-05T03:11:24.159Z,987.24
2018-11-05T03:12:34.288Z,987.23
2018-11-05T03:13:44.423Z,987.23
2018-11-05T03:14:54.548Z,987.25
2018-11-05T03:16:04.715Z,987.25
2018-11-05T03:17:14.564Z,987.2
2018-11-05T03:18:24.701Z,987.17
2018-11-05T03:19:34.556Z,987.18
2018-11-05T03:20:44.414Z,987.19
2018-11-05T03:21:54.544Z,987.21
2018-11-05T03:23:04.402Z,987.16
2018-11-05T03:24:14.263Z,987.18
2018-11-05T03:25:24.120Z,987.18
2018-11-05T03:26:33.972Z,987.17
2018-11-05T03:27:44.106Z,987.14
2018-11-05T03:28:53.976Z,987.17
2018-11-05T03:30:03.845Z,987.12
2018-11-05T03:31:13.713Z,987.13
2018-11-05T03:32:23.591Z,987.11
2018-11-05T03:33:32.895Z,987.1
2018-11-05T03:34:43.024Z,987.07
2018-11-05T03:35:52.752Z,987.06
2018-11-05T03:37:03.796Z,987.03
2018-11-05T03:38:13.928Z,987.06
2018-11-05T03:39:23.520Z,987.04
2018-11-05T03:40:33.661Z,987.03
2018-11-05T03:41:43.513Z,987.03
2018-11-05T03:42:53.383Z,987.11
2018-11-05T03:44:03.513Z,987.12
2018-11-05T03:45:13.387Z,987.16
2018-11-05T03:46:23.537Z,987.08
2018-11-05T03:47:33.682Z,987.15
2018-11-05T03:48:43.539Z,987.11
2018-11-05T03:49:53.400Z,987.12
2018-11-05T03:51:03.534Z,987.08
2018-11-05T03:52:13.676Z,987.14
2018-11-05T03:53:23.807Z,987.11
2018-11-05T03:54:33.935Z,987.1
2018-11-05T03:55:44.237Z,987.08
2018-11-05T03:56:54.758Z,987.08
2018-11-05T03:58:04.405Z,987.02
2018-11-05T03:59:13.983Z,987.05
2018-11-05T04:00:23.563Z,987.05
2018-11-05T04:01:33.711Z,987.05
2018-11-05T04:02:43.013Z,987.05
2018-11-05T04:03:52.873Z,987.09
2018-11-05T04:05:02.475Z,987.11
2018-11-05T04:06:12.351Z,987.16
2018-11-05T04:07:22.344Z,987.13
2018-11-05T04:08:32.189Z,987.14
2018-11-05T04:09:42.042Z,987.14
2018-11-05T04:10:52.183Z,987.16
2018-11-05T04:12:02.047Z,987.15
2018-11-05T04:13:11.634Z,987.15
2018-11-05T04:14:21.211Z,987.14
2018-11-05T04:15:31.481Z,987.11
2018-11-05T04:16:42.639Z,987.1
2018-11-05T04:17:52.774Z,987.09
2018-11-05T04:19:02.924Z,987.07
2018-11-05T04:20:12.503Z,987.05
2018-11-05T04:21:22.360Z,987.04
2018-11-05T04:22:31.940Z,987
2018-11-05T04:23:42.075Z,987.02
2018-11-05T04:24:51.649Z,987.03
2018-11-05T04:26:01.503Z,987.04
2018-11-05T04:27:11.357Z,987
2018-11-05T04:28:21.210Z,987
2018-11-05T04:29:31.360Z,987.01
2018-11-05T04:30:41.276Z,987.01
2018-11-05T04:31:51.407Z,986.97
2018-11-05T04:33:01.556Z,987
2018-11-05T04:34:11.771Z,987.02
2018-11-05T04:35:21.910Z,987
2018-11-05T04:36:31.764Z,987.01
2018-11-05T04:37:41.903Z,986.97
2018-11-05T04:38:52.030Z,986.97
2018-11-05T04:40:01.887Z,986.98
2018-11-05T04:41:11.467Z,986.94
2018-11-05T04:42:21.598Z,986.92
2018-11-05T04:43:31.773Z,986.94
2018-11-05T04:44:41.897Z,986.92
2018-11-05T04:45:52.026Z,986.91
2018-11-05T04:47:01.881Z,987.01
2018-11-05T04:48:12.012Z,986.95
2018-11-05T04:49:21.604Z,986.96
2018-11-05T04:50:31.465Z,986.94
2018-11-05T04:51:41.596Z,986.93
2018-11-05T04:52:51.723Z,986.93
2018-11-05T04:54:01.866Z,986.95
2018-11-05T04:55:11.994Z,986.94
2018-11-05T04:56:22.133Z,986.88
2018-11-05T04:57:32.268Z,986.88
2018-11-05T04:58:42.393Z,986.92
2018-11-05T04:59:51.974Z,986.89
2018-11-05T05:01:01.836Z,986.88
2018-11-05T05:02:11.417Z,986.9
2018-11-05T05:03:20.807Z,986.9
2018-11-05T05:04:31.098Z,986.89
2018-11-05T05:05:41.228Z,986.88
2018-11-05T05:06:51.085Z,986.9
2018-11-05T05:08:00.947Z,986.88
2018-11-05T05:09:10.523Z,986.89
2018-11-05T05:10:20.658Z,986.91
2018-11-05T05:11:30.788Z,986.93
2018-11-05T05:12:40.918Z,986.93
2018-11-05T05:13:51.045Z,986.91
2018-11-05T05:15:00.894Z,986.89
2018-11-05T05:16:10.816Z,986.93
2018-11-05T05:17:21.458Z,986.81
2018-11-05T05:18:31.590Z,986.85
2018-11-05T05:19:41.443Z,986.85
2018-11-05T05:20:51.571Z,986.81
2018-11-05T05:22:00.874Z,986.83
2018-11-05T05:23:11.097Z,986.83
2018-11-05T05:24:21.290Z,986.84
2018-11-05T05:25:31.421Z,986.87
2018-11-05T05:26:41.276Z,986.83
2018-11-05T05:27:51.142Z,986.85
2018-11-05T05:29:00.998Z,986.91
2018-11-05T05:30:10.844Z,986.85
2018-11-05T05:31:20.717Z,986.87
2018-11-05T05:32:30.842Z,986.89
2018-11-05T05:33:40.995Z,986.89
2018-11-05T05:34:50.576Z,986.88
2018-11-05T05:36:00.714Z,986.83
2018-11-05T05:37:10.837Z,986.91
2018-11-05T05:38:20.417Z,986.84
2018-11-05T05:39:30.545Z,986.88
2018-11-05T05:40:40.698Z,986.87
2018-11-05T05:41:50.580Z,986.91
2018-11-05T05:43:00.714Z,986.89
2018-11-05T05:44:10.567Z,986.91
2018-11-05T05:45:20.421Z,986.89
2018-11-05T05:46:30.546Z,986.92
2018-11-05T05:47:40.410Z,986.96
2018-11-05T05:48:50.544Z,986.93
2018-11-05T05:50:00.454Z,986.91
2018-11-05T05:51:10.683Z,986.95
2018-11-05T05:52:20.809Z,986.93
2018-11-05T05:53:30.661Z,986.93
2018-11-05T05:54:40.801Z,986.96
2018-11-05T05:55:50.645Z,986.99
2018-11-05T05:57:00.493Z,987.02
2018-11-05T05:58:10.615Z,987.04
2018-11-05T05:59:20.470Z,987.03
2018-11-05T06:00:30.334Z,987.02
2018-11-05T06:01:40.477Z,986.98
2018-11-05T06:02:50.334Z,987.03
2018-11-05T06:04:00.469Z,987
2018-11-05T06:05:10.327Z,987
2018-11-05T06:06:20.371Z,987.02
2018-11-05T06:07:31.093Z,987.02
2018-11-05T06:08:41.215Z,987.07
2018-11-05T06:09:51.070Z,987.07
2018-11-05T06:11:00.097Z,987.1
2018-11-05T06:12:09.951Z,987.1
2018-11-05T06:13:20.070Z,987.11
2018-11-05T06:14:30.195Z,987.09
2018-11-05T06:15:39.222Z,987.11
2018-11-05T06:16:49.688Z,987.11
2018-11-05T06:17:59.813Z,987.1
2018-11-05T06:19:09.384Z,987.14
2018-11-05T06:20:19.510Z,987.17
2018-11-05T06:21:29.363Z,987.18
2018-11-05T06:22:39.047Z,987.16
2018-11-05T06:23:49.180Z,987.18
2018-11-05T06:24:59.037Z,987.23
2018-11-05T06:26:08.927Z,987.22
2018-11-05T06:27:18.514Z,987.24
2018-11-05T06:28:28.435Z,987.22
2018-11-05T06:29:38.225Z,987.2
2018-11-05T06:30:48.084Z,987.22
2018-11-05T06:31:58.220Z,987.17
2018-11-05T06:33:08.354Z,987.23
2018-11-05T06:34:18.076Z,987.24
2018-11-05T06:35:27.768Z,987.23
2018-11-05T06:36:38.204Z,987.24
2018-11-05T06:37:48.054Z,987.23
2018-11-05T06:38:57.913Z,987.2
2018-11-05T06:40:07.488Z,987.23
2018-11-05T06:41:17.443Z,987.23
2018-11-05T06:42:48.769Z,987.29
2018-11-05T06:43:59.207Z,987.25
2018-11-05T06:45:09.551Z,987.25
2018-11-05T06:46:19.625Z,987.29
2018-11-05T06:47:29.764Z,987.28
2018-11-05T06:48:39.644Z,987.32
2018-11-05T06:49:49.311Z,987.34
2018-11-05T06:50:59.152Z,987.35
2018-11-05T06:52:08.997Z,987.33
2018-11-05T06:53:18.844Z,987.36
2018-11-05T06:54:28.701Z,987.35
2018-11-05T06:55:38.823Z,987.33
2018-11-05T06:56:48.670Z,987.36
2018-11-05T06:57:58.516Z,987.36
2018-11-05T06:59:08.374Z,987.39
2018-11-05T07:00:18.235Z,987.4
2018-11-05T07:01:28.364Z,987.36
2018-11-05T07:02:38.390Z,987.39
2018-11-05T07:03:48.449Z,987.39
2018-11-05T07:04:58.297Z,987.42
2018-11-05T07:06:08.156Z,987.39
2018-11-05T07:07:18.001Z,987.43
2018-11-05T07:08:27.872Z,987.46
2018-11-05T07:09:38.003Z,987.46
2018-11-05T07:10:48.425Z,987.47
2018-11-05T07:11:58.563Z,987.46
2018-11-05T07:13:08.700Z,987.48
2018-11-05T07:14:18.907Z,987.47
2018-11-05T07:15:29.043Z,987.47
2018-11-05T07:16:39.181Z,987.45
2018-11-05T07:17:49.046Z,987.46
2018-11-05T07:18:59.076Z,987.52
2018-11-05T07:20:11.621Z,987.52
2018-11-05T07:21:21.498Z,987.54
2018-11-05T07:22:31.347Z,987.52
2018-11-05T07:23:41.470Z,987.56
2018-11-05T07:24:51.318Z,987.53
2018-11-05T07:26:01.162Z,987.56
2018-11-05T07:27:11.305Z,987.56
2018-11-05T07:28:21.157Z,987.57
2018-11-05T07:29:31.285Z,987.55
2018-11-05T07:30:40.866Z,987.63
2018-11-05T07:31:50.988Z,987.58
2018-11-05T07:33:00.611Z,987.64
2018-11-05T07:34:10.410Z,987.65
2018-11-05T07:35:20.764Z,987.69
2018-11-05T07:36:30.886Z,987.64
2018-11-05T07:37:40.473Z,987.66
2018-11-05T07:38:50.650Z,987.69
2018-11-05T07:40:00.499Z,987.7
2018-11-05T07:41:10.625Z,987.69
2018-11-05T07:42:20.483Z,987.72
2018-11-05T07:43:30.609Z,987.69
2018-11-05T07:44:40.466Z,987.71
2018-11-05T07:45:50.592Z,987.73
2018-11-05T07:47:00.172Z,987.74
2018-11-05T07:48:10.022Z,987.76
2018-11-05T07:49:20.148Z,987.75
2018-11-05T07:50:29.789Z,987.77
2018-11-05T07:51:39.935Z,987.73
2018-11-05T07:52:50.064Z,987.72
2018-11-05T07:54:00.186Z,987.76
2018-11-05T07:55:10.081Z,987.76
2018-11-05T07:56:20.326Z,987.69
2018-11-05T07:57:30.742Z,987.71
2018-11-05T07:58:40.321Z,987.68
2018-11-05T07:59:50.167Z,987.66
2018-11-05T08:01:00.316Z,987.66
2018-11-05T08:02:09.957Z,987.61
2018-11-05T08:03:19.811Z,987.57
2018-11-05T08:04:29.110Z,987.55
2018-11-05T08:05:38.682Z,987.57
2018-11-05T08:06:48.256Z,987.56
2018-11-05T08:07:58.433Z,987.6
2018-11-05T08:09:08.371Z,987.63
2018-11-05T08:10:17.670Z,987.59
2018-11-05T08:11:27.522Z,987.58
2018-11-05T08:12:37.651Z,987.59
2018-11-05T08:13:47.275Z,987.59
2018-11-05T08:14:57.134Z,987.59
2018-11-05T08:16:06.985Z,987.6
2018-11-05T08:17:16.866Z,987.62
2018-11-05T08:18:26.714Z,987.63
2018-11-05T08:19:36.346Z,987.66
2018-11-05T08:20:46.203Z,987.65
2018-11-05T08:21:56.326Z,987.65
2018-11-05T08:23:06.193Z,987.69
2018-11-05T08:24:16.041Z,987.7
2018-11-05T08:25:26.212Z,987.64
2018-11-05T08:26:36.367Z,987.64
2018-11-05T08:27:45.949Z,987.64
2018-11-05T08:28:56.071Z,987.63
2018-11-05T08:30:06.203Z,987.64
2018-11-05T08:31:16.118Z,987.61
2018-11-05T08:32:26.239Z,987.58
2018-11-05T08:33:35.814Z,987.56
2018-11-05T08:34:45.667Z,987.59
2018-11-05T08:35:55.572Z,987.59
2018-11-05T08:37:04.927Z,987.62
2018-11-05T08:38:15.072Z,987.59
2018-11-05T08:39:24.938Z,987.58
2018-11-05T08:40:34.817Z,987.58
2018-11-05T08:41:44.974Z,987.59
2018-11-05T08:42:55.157Z,987.61
2018-11-05T08:44:05.287Z,987.58
2018-11-05T08:45:14.868Z,987.56
2018-11-05T08:46:25.055Z,987.51
2018-11-05T08:47:35.235Z,987.54
2018-11-05T08:48:45.406Z,987.53
2018-11-05T08:49:55.582Z,987.56
2018-11-05T08:51:04.802Z,987.56
2018-11-05T08:52:16.850Z,987.59
2018-11-05T08:53:26.705Z,987.55
2018-11-05T08:54:36.327Z,987.51
2018-11-05T08:55:46.180Z,987.53
2018-11-05T08:56:56.322Z,987.48
2018-11-05T08:58:06.443Z,987.54
2018-11-05T08:59:16.297Z,987.52
2018-11-05T09:00:26.145Z,987.56
2018-11-05T09:01:36.272Z,987.57
2018-11-05T09:02:45.574Z,987.62
2018-11-05T09:03:55.468Z,987.6
2018-11-05T09:05:05.352Z,987.6
2018-11-05T09:06:16.047Z,987.57
2018-11-05T09:07:26.221Z,987.57
2018-11-05T09:08:36.079Z,987.59
2018-11-05T09:09:46.001Z,987.59
2018-11-05T09:10:57.210Z,987.55
2018-11-05T09:12:10.768Z,987.56
2018-11-05T09:13:21.158Z,987.63
2018-11-05T09:14:31.285Z,987.65
2018-11-05T09:15:41.144Z,987.69
2018-11-05T09:16:50.995Z,987.64
2018-11-05T09:18:01.146Z,987.64
2018-11-05T09:19:10.724Z,987.66
2018-11-05T09:20:20.996Z,987.67
2018-11-05T09:21:30.846Z,987.7
2018-11-05T09:22:40.972Z,987.72
2018-11-05T09:23:50.874Z,987.68
2018-11-05T09:25:00.726Z,987.71
2018-11-05T09:26:10.862Z,987.7
2018-11-05T09:27:20.724Z,987.66
2018-11-05T09:28:30.574Z,987.7
2018-11-05T09:29:40.200Z,987.71
2018-11-05T09:30:49.777Z,987.73
2018-11-05T09:31:59.905Z,987.72
2018-11-05T09:33:10.040Z,987.7
2018-11-05T09:34:20.174Z,987.68
2018-11-05T09:35:29.797Z,987.65
2018-11-05T09:36:39.370Z,987.7
2018-11-05T09:37:49.226Z,987.73
2018-11-05T09:38:59.073Z,987.73
2018-11-05T09:40:08.926Z,987.79
2018-11-05T09:41:19.105Z,987.76
2018-11-05T09:42:29.286Z,987.82
2018-11-05T09:43:39.279Z,987.85
2018-11-05T09:44:49.403Z,987.86
2018-11-05T09:45:59.254Z,987.81
2018-11-05T09:47:09.102Z,987.83
2018-11-05T09:48:18.678Z,987.85
2018-11-05T09:49:28.830Z,987.83
2018-11-05T09:50:39.371Z,987.84
2018-11-05T09:51:50.017Z,987.88
2018-11-05T09:52:59.923Z,987.9
2018-11-05T09:54:09.773Z,987.89
2018-11-05T09:55:19.627Z,987.88
2018-11-05T09:56:29.909Z,987.86
2018-11-05T09:57:40.033Z,987.84
2018-11-05T09:58:50.295Z,987.85
2018-11-05T09:59:59.866Z,987.84
2018-11-05T10:01:09.999Z,987.78
2018-11-05T10:02:20.125Z,987.76
2018-11-05T10:03:29.993Z,987.74
2018-11-05T10:04:41.113Z,987.72
2018-11-05T10:05:53.818Z,987.75
2018-11-05T10:07:03.676Z,987.76
2018-11-05T10:08:13.581Z,987.77
2018-11-05T10:09:23.710Z,987.75
2018-11-05T10:10:33.506Z,987.79
2018-11-05T10:11:43.632Z,987.76
2018-11-05T10:12:53.484Z,987.82
2018-11-05T10:14:03.617Z,987.79
2018-11-05T10:15:13.479Z,987.73
2018-11-05T10:16:23.703Z,987.74
2018-11-05T10:17:34.046Z,987.74
2018-11-05T10:18:43.622Z,987.72
2018-11-05T10:19:53.755Z,987.63
2018-11-05T10:21:03.605Z,987.62
2018-11-05T10:22:12.972Z,987.64
2018-11-05T10:23:22.824Z,987.6
2018-11-05T10:24:32.559Z,987.61
2018-11-05T10:25:43.357Z,987.61
2018-11-05T10:26:52.947Z,987.65
2018-11-05T10:28:03.090Z,987.64
2018-11-05T10:29:13.226Z,987.6
2018-11-05T10:30:23.361Z,987.57
2018-11-05T10:31:33.510Z,987.55
2018-11-05T10:32:43.084Z,987.59
2018-11-05T10:33:53.221Z,987.59
2018-11-05T10:35:03.073Z,987.55
2018-11-05T10:36:12.661Z,987.53
2018-11-05T10:37:22.514Z,987.54
2018-11-05T10:38:32.425Z,987.53
2018-11-05T10:39:42.251Z,987.57
2018-11-05T10:40:52.433Z,987.54
2018-11-05T10:42:02.563Z,987.55
2018-11-05T10:43:12.697Z,987.57
2018-11-05T10:44:22.830Z,987.55
2018-11-05T10:45:32.475Z,987.57
2018-11-05T10:46:42.602Z,987.55
2018-11-05T10:47:52.456Z,987.54
2018-11-05T10:49:02.325Z,987.56
2018-11-05T10:50:12.224Z,987.51
2018-11-05T10:51:22.837Z,987.52
2018-11-05T10:52:33.592Z,987.52
2018-11-05T10:53:43.165Z,987.49
2018-11-05T10:54:53.297Z,987.48
2018-11-05T10:56:03.422Z,987.46
2018-11-05T10:57:13.051Z,987.45
2018-11-05T10:58:23.083Z,987.43
2018-11-05T10:59:33.239Z,987.43
2018-11-05T11:00:43.097Z,987.44
2018-11-05T11:01:53.228Z,987.48
2018-11-05T11:03:02.306Z,987.5
2018-11-05T11:04:12.165Z,987.52
2018-11-05T11:05:22.483Z,987.53
2018-11-05T11:06:32.623Z,987.51
2018-11-05T11:07:42.201Z,987.43
2018-11-05T11:08:52.377Z,987.48
2018-11-05T11:10:02.510Z,987.46
2018-11-05T11:11:12.368Z,987.42
2018-11-05T11:12:22.497Z,987.41
2018-11-05T11:13:32.651Z,987.44
2018-11-05T11:14:42.556Z,987.4
2018-11-05T11:15:52.695Z,987.36
2018-11-05T11:17:02.559Z,987.38
2018-11-05T11:18:12.138Z,987.34
2018-11-05T11:19:21.996Z,987.36
2018-11-05T11:20:32.174Z,987.33
2018-11-05T11:21:42.029Z,987.36
2018-11-05T11:22:52.222Z,987.33
2018-11-05T11:24:02.360Z,987.3
2018-11-05T11:25:12.210Z,987.28
2018-11-05T11:26:22.113Z,987.33
2018-11-05T11:27:31.421Z,987.34
2018-11-05T11:28:42.008Z,987.29
2018-11-05T11:29:52.056Z,987.3
2018-11-05T11:31:01.917Z,987.26
2018-11-05T11:32:11.826Z,987.23
2018-11-05T11:33:21.676Z,987.22
2018-11-05T11:34:31.537Z,987.22
2018-11-05T11:35:41.117Z,987.25
2018-11-05T11:36:51.298Z,987.21
2018-11-05T11:38:01.450Z,987.19
2018-11-05T11:39:11.314Z,987.16
2018-11-05T11:40:21.172Z,987.21
2018-11-05T11:41:31.298Z,987.22
2018-11-05T11:42:40.608Z,987.21
2018-11-05T11:43:50.786Z,987.23
2018-11-05T11:45:01.187Z,987.29
2018-11-05T11:46:10.822Z,987.25
2018-11-05T11:47:20.677Z,987.23
2018-11-05T11:48:30.531Z,987.18
2018-11-05T11:49:40.442Z,987.17
2018-11-05T11:50:50.583Z,987.19
2018-11-05T11:52:00.431Z,987.23
2018-11-05T11:53:10.702Z,987.22
2018-11-05T11:54:21.646Z,987.23
2018-11-05T11:55:31.847Z,987.21
2018-11-05T11:56:42.063Z,987.2
2018-11-05T11:57:51.653Z,987.18
2018-11-05T11:59:01.519Z,987.22
2018-11-05T12:00:11.480Z,987.17
2018-11-05T12:01:21.412Z,987.14
2018-11-05T12:02:31.630Z,987.14
2018-11-05T12:03:41.765Z,987.16
2018-11-05T12:04:51.740Z,987.14
2018-11-05T12:06:02.008Z,987.12
2018-11-05T12:07:11.630Z,987.12
2018-11-05T12:08:21.224Z,987.09
2018-11-05T12:09:31.356Z,987.07
2018-11-05T12:10:41.211Z,987.09
2018-11-05T12:11:51.355Z,987.1
2018-11-05T12:13:01.260Z,987.1
2018-11-05T12:14:10.900Z,987.07
2018-11-05T12:15:21.083Z,987.07
2018-11-05T12:16:31.234Z,987.08
2018-11-05T12:17:41.370Z,987.06
2018-11-05T12:18:51.543Z,987.08
2018-11-05T12:20:01.406Z,987.09
2018-11-05T12:21:10.986Z,987.12
2018-11-05T12:22:20.565Z,987.09
2018-11-05T12:23:30.697Z,987.1
2018-11-05T12:24:40.877Z,987.13
2018-11-05T12:25:50.305Z,987.08
2018-11-05T12:27:00.165Z,987.08
2018-11-05T12:28:09.748Z,987.09
2018-11-05T12:29:19.885Z,987.08
2018-11-05T12:30:29.791Z,987.03
2018-11-05T12:31:39.646Z,987.04
2018-11-05T12:32:49.777Z,987.03
2018-11-05T12:33:59.636Z,987.04
2018-11-05T12:35:09.488Z,987.03
2018-11-05T12:36:19.666Z,987.04
2018-11-05T12:37:29.805Z,987.04
2018-11-05T12:38:39.402Z,987.1
2018-11-05T12:39:49.619Z,987.12
2018-11-05T12:40:59.474Z,987.09
2018-11-05T12:42:09.117Z,987.1
2018-11-05T12:43:19.261Z,987.14
2018-11-05T12:44:29.442Z,987.08
2018-11-05T12:45:40.272Z,987.08
2018-11-05T12:46:50.122Z,987.1
2018-11-05T12:48:00.085Z,987.13
2018-11-05T12:49:09.666Z,987.08
2018-11-05T12:50:19.791Z,987.06
2018-11-05T12:51:29.424Z,987.07
2018-11-05T12:52:39.552Z,987.06
2018-11-05T12:53:49.732Z,987.09
2018-11-05T12:54:59.863Z,987.05
2018-11-05T12:56:10.005Z,987.05
2018-11-05T12:57:20.131Z,987.05
2018-11-05T12:58:30.267Z,987.06
2018-11-05T12:59:40.180Z,987.07
2018-11-05T13:00:50.042Z,987.07
2018-11-05T13:01:59.795Z,987.09
2018-11-05T13:03:09.652Z,987.13
2018-11-05T13:04:19.797Z,987.11
2018-11-05T13:05:29.456Z,987.09
2018-11-05T13:06:39.057Z,987.11
2018-11-05T13:07:49.322Z,987.1
2018-11-05T13:08:59.459Z,987.04
2018-11-05T13:10:09.308Z,987.01
2018-11-05T13:11:18.933Z,987.04
2018-11-05T13:12:28.784Z,987.02
2018-11-05T13:13:38.635Z,987.03
2018-11-05T13:14:48.484Z,987.01
2018-11-05T13:15:57.795Z,986.99
2018-11-05T13:17:07.434Z,986.96
2018-11-05T13:18:17.557Z,986.98
2018-11-05T13:19:27.405Z,986.97
2018-11-05T13:20:37.542Z,987.03
2018-11-05T13:21:47.117Z,987.04
2018-11-05T13:22:56.470Z,987.06
2018-11-05T13:24:06.620Z,987.09
2018-11-05T13:25:16.707Z,987.07
2018-11-05T13:26:26.580Z,987.09
2018-11-05T13:27:36.702Z,987.13
2018-11-05T13:28:47.152Z,987.11
2018-11-05T13:29:57.278Z,987.14
2018-11-05T13:31:07.428Z,987.13
2018-11-05T13:32:17.561Z,987.16
2018-11-05T13:33:27.707Z,987.14
2018-11-05T13:34:37.897Z,987.09
2018-11-05T13:35:47.739Z,987.07
2018-11-05T13:36:57.909Z,987.04
2018-11-05T13:38:09.005Z,987.06
2018-11-05T13:39:21.763Z,987.05
2018-11-05T13:40:31.394Z,987.04
2018-11-05T13:41:40.967Z,987.01
2018-11-05T13:42:50.821Z,987
2018-11-05T13:44:00.681Z,986.99
2018-11-05T13:45:10.922Z,986.98
2018-11-05T13:46:21.946Z,986.97
2018-11-05T13:47:34.935Z,986.99
2018-11-05T13:48:51.144Z,986.98
2018-11-05T13:50:05.895Z,986.94
2018-11-05T13:51:17.265Z,986.9
2018-11-05T13:52:27.700Z,986.88
2018-11-05T13:53:38.008Z,986.87
2018-11-05T13:54:47.546Z,986.84
2018-11-05T13:56:00.088Z,986.8
2018-11-05T13:57:10.320Z,986.8
2018-11-05T13:58:20.233Z,986.85
2018-11-05T13:59:30.379Z,986.81
2018-11-05T14:00:40.234Z,986.84
2018-11-05T14:01:50.094Z,986.79
2018-11-05T14:03:00.276Z,986.82
2018-11-05T14:04:10.144Z,986.8
2018-11-05T14:05:20.269Z,986.82
2018-11-05T14:06:30.507Z,986.82
2018-11-05T14:07:40.638Z,986.77
2018-11-05T14:08:50.822Z,986.78
2018-11-05T14:10:00.405Z,986.81
2018-11-05T14:11:10.264Z,986.81
2018-11-05T14:12:20.390Z,986.81
2018-11-05T14:13:30.568Z,986.81
2018-11-05T14:14:40.498Z,986.77
2018-11-05T14:15:50.644Z,986.75
2018-11-05T14:17:00.221Z,986.79
2018-11-05T14:18:09.829Z,986.81
2018-11-05T14:19:20.030Z,986.77
2018-11-05T14:20:29.930Z,986.81
2018-11-05T14:21:39.787Z,986.82
2018-11-05T14:22:49.635Z,986.82
2018-11-05T14:23:59.766Z,986.78
2018-11-05T14:25:09.897Z,986.78
2018-11-05T14:26:20.030Z,986.74
2018-11-05T14:27:29.811Z,986.73
2018-11-05T14:28:41.349Z,986.7
2018-11-05T14:29:54.280Z,986.76
2018-11-05T14:31:07.075Z,986.7
2018-11-05T14:32:17.443Z,986.74
2018-11-05T14:33:27.771Z,986.75
2018-11-05T14:34:37.639Z,986.73
2018-11-05T14:35:47.824Z,986.74
2018-11-05T14:36:58.443Z,986.72